Time;durP1;ratioP1;P1;durP2;ratioP2;P2;SDS_P1;SDS_P2;PMS_P1;PMS_P2;Temp;Humidity;BMP_temperature;BMP_pressure;BME280_temperature;BME280_humidity;BME280_pressure;Samples;Min_cycle;Max_cycle;Signal;HPM_P1;HPM_P2
2023/09/01 00:01:49;;;;;;;28.52;8.93;;;;;;;-147.95;100.00;58458.38;5081916;28;20080;-85
2023/09/01 00:04:14;;;;;;;27.92;9.48;;;;;;;-147.95;100.00;58458.38;5088564;28;20507;-85
2023/09/01 00:06:39;;;;;;;30.15;10.10;;;;;;;-147.95;100.00;58458.38;5083917;28;20028;-86
2023/09/01 00:09:05;;;;;;;24.92;9.93;;;;;;;-147.95;100.00;58458.38;5071813;28;20077;-85
2023/09/01 00:11:30;;;;;;;21.33;11.00;;;;;;;-147.95;100.00;58458.38;5070692;28;21041;-85
2023/09/01 00:13:56;;;;;;;24.67;10.07;;;;;;;-147.95;100.00;58458.38;5084604;28;20040;-85
2023/09/01 00:16:21;;;;;;;29.83;10.02;;;;;;;-147.95;100.00;58458.38;5071011;28;20032;-85
2023/09/01 00:18:46;;;;;;;27.63;9.82;;;;;;;-147.95;100.00;58458.38;5072503;28;20034;-85
2023/09/01 00:21:12;;;;;;;21.90;10.00;;;;;;;-147.95;100.00;58458.38;5069361;28;20063;-85
2023/09/01 00:23:37;;;;;;;21.65;9.75;;;;;;;-147.95;100.00;58458.38;5082126;28;20115;-85
2023/09/01 00:26:04;;;;;;;26.88;9.60;;;;;;;-147.95;100.00;58458.38;5071541;28;20115;-85
2023/09/01 00:28:29;;;;;;;26.30;10.50;;;;;;;-147.95;100.00;58458.38;5087803;28;20388;-85
2023/09/01 00:30:57;;;;;;;32.17;10.38;;;;;;;-147.95;100.00;58458.38;5088925;28;20047;-85
2023/09/01 00:33:26;;;;;;;26.75;10.05;;;;;;;-147.95;100.00;58458.38;5084686;28;20507;-85
2023/09/01 00:35:52;;;;;;;23.50;8.82;;;;;;;-147.95;100.00;58458.38;5085754;28;20060;-85
2023/09/01 00:38:18;;;;;;;25.65;10.13;;;;;;;-147.95;100.00;58458.38;5068726;28;20079;-85
2023/09/01 00:40:43;;;;;;;24.35;8.98;;;;;;;-147.95;100.00;58458.38;5083328;28;20024;-85
2023/09/01 00:43:09;;;;;;;29.92;10.73;;;;;;;-147.95;100.00;58458.38;5087106;28;20032;-86
2023/09/01 00:45:37;;;;;;;28.15;9.95;;;;;;;-147.95;100.00;58458.38;5079685;28;20448;-85
2023/09/01 00:48:05;;;;;;;32.42;9.90;;;;;;;-147.95;100.00;58458.38;5078236;28;20528;-85
2023/09/01 00:50:30;;;;;;;28.08;9.02;;;;;;;-147.95;100.00;58458.38;5082042;28;20115;-85
2023/09/01 00:52:56;;;;;;;23.17;9.82;;;;;;;-147.95;100.00;58458.38;5069125;28;20112;-85
2023/09/01 00:55:21;;;;;;;31.88;9.93;;;;;;;-147.95;100.00;58458.38;5071974;28;20089;-85
2023/09/01 00:57:47;;;;;;;31.05;9.80;;;;;;;-147.95;100.00;58458.38;5087942;28;20452;-86
2023/09/01 01:00:13;;;;;;;29.80;9.50;;;;;;;-147.95;100.00;58458.38;5088165;28;20043;-85
2023/09/01 01:02:38;;;;;;;23.73;8.85;;;;;;;-147.95;100.00;58458.38;5081992;28;20035;-86
2023/09/01 01:05:15;;;;;;;28.48;9.40;;;;;;;-147.95;100.00;58458.38;5089485;28;20036;-86
2023/09/01 01:07:55;;;;;;;32.10;9.88;;;;;;;-147.95;100.00;58458.38;5080272;28;20092;-86
2023/09/01 01:10:37;;;;;;;21.58;8.57;;;;;;;-147.95;100.00;58458.38;5087017;28;20077;-78
2023/09/01 01:13:10;;;;;;;27.33;9.50;;;;;;;-147.95;100.00;58458.38;5086746;28;20032;-78
2023/09/01 01:15:37;;;;;;;27.98;8.88;;;;;;;-147.95;100.00;58458.38;5090111;28;20109;-78
2023/09/01 01:18:08;;;;;;;26.05;8.93;;;;;;;-147.95;100.00;58458.38;5084884;28;20042;-78
2023/09/01 01:20:37;;;;;;;22.02;9.57;;;;;;;-147.95;100.00;58458.38;5084835;28;20062;-78
2023/09/01 01:23:17;;;;;;;23.90;8.88;;;;;;;-147.95;100.00;58458.38;5089049;28;20073;-78
2023/09/01 01:25:51;;;;;;;21.20;8.55;;;;;;;-147.95;100.00;58458.38;5087950;28;20020;-78
2023/09/01 01:28:18;;;;;;;31.17;10.63;;;;;;;-147.95;100.00;58458.38;5089035;28;20024;-78
2023/09/01 01:30:46;;;;;;;32.65;9.68;;;;;;;-147.95;100.00;58458.38;5093148;28;20032;-78
2023/09/01 01:33:59;;;;;;;29.48;9.02;;;;;;;-147.95;100.00;58458.38;5087034;28;20024;-78
2023/09/01 01:36:49;;;;;;;28.85;8.07;;;;;;;-147.95;100.00;58458.38;5069032;28;20418;-78
2023/09/01 01:39:28;;;;;;;28.33;8.95;;;;;;;-147.95;100.00;58458.38;5092233;28;20016;-78
2023/09/01 01:42:13;;;;;;;29.23;9.63;;;;;;;-147.95;100.00;58458.38;5100245;28;20127;-79
2023/09/01 01:44:43;;;;;;;17.98;8.70;;;;;;;-147.95;100.00;58458.38;5091557;28;20047;-78
2023/09/01 01:47:09;;;;;;;24.63;8.35;;;;;;;-147.95;100.00;58458.38;5090716;28;20036;-78
2023/09/01 01:49:35;;;;;;;20.50;8.63;;;;;;;-147.95;100.00;58458.38;5085911;28;20085;-78
2023/09/01 01:52:00;;;;;;;25.15;8.55;;;;;;;-147.95;100.00;58458.38;5052520;28;20027;-78
2023/09/01 01:54:26;;;;;;;28.60;10.15;;;;;;;-147.95;100.00;58458.38;5089545;28;20714;-78
2023/09/01 01:56:52;;;;;;;25.00;9.77;;;;;;;-147.95;100.00;58458.38;5057007;28;20490;-78
2023/09/01 01:59:17;;;;;;;24.90;9.02;;;;;;;-147.95;100.00;58458.38;5056155;28;20437;-77
2023/09/01 02:01:43;;;;;;;28.45;8.98;;;;;;;-147.95;100.00;58458.38;5091877;28;20089;-77
2023/09/01 02:04:08;;;;;;;28.90;10.02;;;;;;;-147.95;100.00;58458.38;5072460;28;20455;-78
2023/09/01 02:06:34;;;;;;;33.92;9.88;;;;;;;-147.95;100.00;58458.38;5086000;28;20479;-78
2023/09/01 02:08:59;;;;;;;28.33;10.60;;;;;;;-147.95;100.00;58458.38;5091404;28;20086;-78
2023/09/01 02:11:24;;;;;;;20.77;8.35;;;;;;;-147.95;100.00;58458.38;5091831;28;20044;-78
2023/09/01 02:13:50;;;;;;;21.75;8.57;;;;;;;-147.95;100.00;58458.38;5073648;28;20032;-78
2023/09/01 02:16:15;;;;;;;20.75;8.77;;;;;;;-147.95;100.00;58458.38;5087704;28;20028;-77
2023/09/01 02:18:41;;;;;;;22.92;8.50;;;;;;;-147.95;100.00;58458.38;5086492;28;20809;-77
2023/09/01 02:21:07;;;;;;;31.75;10.57;;;;;;;-147.95;100.00;58458.38;5089655;28;20077;-77
2023/09/01 02:23:32;;;;;;;22.45;8.45;;;;;;;-147.95;100.00;58458.38;5089309;28;20032;-77
2023/09/01 02:25:58;;;;;;;22.88;9.95;;;;;;;-147.95;100.00;58458.38;5085425;28;20036;-77
2023/09/01 02:28:23;;;;;;;26.23;10.15;;;;;;;-147.95;100.00;58458.38;5086285;28;20055;-77
2023/09/01 02:30:49;;;;;;;24.58;10.00;;;;;;;-147.95;100.00;58458.38;5084021;28;20028;-78
2023/09/01 02:33:14;;;;;;;22.13;9.75;;;;;;;-147.95;100.00;58458.38;5088133;28;20031;-78
2023/09/01 02:35:42;;;;;;;20.90;10.35;;;;;;;-147.95;100.00;58458.38;5085256;28;20045;-77
2023/09/01 02:38:08;;;;;;;20.67;10.25;;;;;;;-147.95;100.00;58458.38;5084693;28;20092;-78
2023/09/01 02:40:33;;;;;;;26.73;10.05;;;;;;;-147.95;100.00;58458.38;5072406;28;20169;-77
2023/09/01 02:42:59;;;;;;;23.55;10.05;;;;;;;-147.95;100.00;58458.38;5065046;28;20039;-77
2023/09/01 02:45:24;;;;;;;30.58;10.27;;;;;;;-147.95;100.00;58458.38;5071430;28;20039;-77
2023/09/01 02:47:49;;;;;;;30.73;10.02;;;;;;;-147.95;100.00;58458.38;5081104;28;20028;-77
2023/09/01 02:50:15;;;;;;;28.20;10.55;;;;;;;-147.95;100.00;58458.38;5083051;28;20807;-78
2023/09/01 02:52:40;;;;;;;33.00;10.95;;;;;;;-147.95;100.00;58458.38;5084300;28;20031;-78
2023/09/01 02:55:06;;;;;;;26.75;11.63;;;;;;;-147.95;100.00;58458.38;5088785;28;20399;-77
2023/09/01 02:57:32;;;;;;;30.92;11.57;;;;;;;-147.95;100.00;58458.38;5071136;28;20103;-77
2023/09/01 02:59:58;;;;;;;36.30;11.30;;;;;;;-147.95;100.00;58458.38;5089260;28;20028;-77
2023/09/01 03:02:24;;;;;;;27.05;11.00;;;;;;;-147.95;100.00;58458.38;5086105;28;20414;-77
2023/09/01 03:04:50;;;;;;;22.95;11.73;;;;;;;-147.95;100.00;58458.38;5089237;28;20064;-77
2023/09/01 03:07:16;;;;;;;26.48;11.57;;;;;;;-147.95;100.00;58458.38;5090772;28;20031;-77
2023/09/01 03:09:41;;;;;;;30.08;12.80;;;;;;;-147.95;100.00;58458.38;5092507;28;20036;-77
2023/09/01 03:12:06;;;;;;;25.73;11.80;;;;;;;-147.95;100.00;58458.38;5087284;28;21284;-77
2023/09/01 03:14:32;;;;;;;30.75;11.35;;;;;;;-147.95;100.00;58458.38;5086821;28;20031;-77
2023/09/01 03:16:57;;;;;;;32.58;12.13;;;;;;;-147.95;100.00;58458.38;5052313;28;20035;-77
2023/09/01 03:19:24;;;;;;;25.33;11.15;;;;;;;-147.95;100.00;58458.38;5083288;28;20035;-77
2023/09/01 03:21:50;;;;;;;26.55;11.27;;;;;;;-147.95;100.00;58458.38;5067834;28;20032;-77
2023/09/01 03:24:15;;;;;;;24.00;10.02;;;;;;;-147.95;100.00;58458.38;5066240;28;20025;-77
2023/09/01 03:26:41;;;;;;;27.95;10.93;;;;;;;-147.95;100.00;58458.38;5069798;28;20037;-77
2023/09/01 03:29:06;;;;;;;24.17;9.68;;;;;;;-147.95;100.00;58458.38;5084295;28;20093;-77
2023/09/01 03:31:31;;;;;;;34.30;10.10;;;;;;;-147.95;100.00;58458.38;5069151;28;20138;-84
2023/09/01 03:33:57;;;;;;;27.52;9.85;;;;;;;-147.95;100.00;58458.38;5055963;28;20448;-85
2023/09/01 03:36:23;;;;;;;24.45;9.98;;;;;;;-147.95;100.00;58458.38;5084363;28;20089;-85
2023/09/01 03:38:48;;;;;;;23.75;9.40;;;;;;;-147.95;100.00;58458.38;5081400;28;20634;-85
2023/09/01 03:41:15;;;;;;;26.40;9.80;;;;;;;-147.95;100.00;58458.38;5089111;28;20056;-84
2023/09/01 03:43:40;;;;;;;28.13;9.38;;;;;;;-147.95;100.00;58458.38;5081148;28;20031;-85
2023/09/01 03:46:06;;;;;;;24.23;8.90;;;;;;;-147.95;100.00;58458.38;5087609;28;20028;-85
2023/09/01 03:48:31;;;;;;;23.15;9.45;;;;;;;-147.95;100.00;58458.38;5090502;28;20398;-85
2023/09/01 03:51:16;;;;;;;20.90;9.73;;;;;;;-147.95;100.00;58458.38;5068121;28;20039;-84
2023/09/01 03:53:43;;;;;;;23.02;9.50;;;;;;;-147.95;100.00;58458.38;5085714;28;20094;-85
2023/09/01 03:56:13;;;;;;;26.33;10.50;;;;;;;-147.95;100.00;58458.38;5087666;28;20107;-86
2023/09/01 03:58:41;;;;;;;27.90;9.65;;;;;;;-147.95;100.00;58458.38;5087217;28;20035;-86
2023/09/01 04:01:11;;;;;;;22.80;9.82;;;;;;;-147.95;100.00;58458.38;5088172;28;20100;-85
2023/09/01 04:03:41;;;;;;;22.92;8.55;;;;;;;-147.95;100.00;58458.38;5089153;28;20028;-86
2023/09/01 04:06:07;;;;;;;23.23;9.20;;;;;;;-147.95;100.00;58458.38;5085066;28;20073;-86
2023/09/01 04:08:37;;;;;;;30.45;9.75;;;;;;;-147.95;100.00;58458.38;5085743;28;20024;-85
2023/09/01 04:11:04;;;;;;;32.15;10.18;;;;;;;-147.95;100.00;58458.38;5072685;28;20086;-85
2023/09/01 04:13:31;;;;;;;29.52;9.60;;;;;;;-147.95;100.00;58458.38;5083719;28;20089;-85
2023/09/01 04:15:59;;;;;;;19.60;7.78;;;;;;;-147.95;100.00;58458.38;5079901;28;20028;-85
2023/09/01 04:18:25;;;;;;;20.60;8.88;;;;;;;-147.95;100.00;58458.38;5080196;28;20081;-85
2023/09/01 04:20:52;;;;;;;20.00;8.40;;;;;;;-147.95;100.00;58458.38;5083345;28;20036;-85
2023/09/01 04:23:18;;;;;;;25.40;8.98;;;;;;;-147.95;100.00;58458.38;5066771;28;20032;-89
2023/09/01 04:25:45;;;;;;;14.05;7.90;;;;;;;-147.95;100.00;58458.38;5089416;28;20024;-85
2023/09/01 04:28:12;;;;;;;23.63;8.38;;;;;;;-147.95;100.00;58458.38;5083770;28;20092;-85
2023/09/01 04:30:38;;;;;;;19.25;7.90;;;;;;;-147.95;100.00;58458.38;5084020;28;20625;-85
2023/09/01 04:33:07;;;;;;;29.38;8.40;;;;;;;-147.95;100.00;58458.38;5063537;28;20021;-83
2023/09/01 04:35:33;;;;;;;22.73;8.40;;;;;;;-147.95;100.00;58458.38;5087711;28;20099;-82
2023/09/01 04:37:59;;;;;;;25.98;8.00;;;;;;;-147.95;100.00;58458.38;5082938;28;20504;-82
2023/09/01 04:40:28;;;;;;;25.48;8.13;;;;;;;-147.95;100.00;58458.38;5083577;28;20057;-82
2023/09/01 04:42:54;;;;;;;25.42;8.80;;;;;;;-147.95;100.00;58458.38;5061232;28;20038;-81
2023/09/01 04:45:20;;;;;;;23.10;7.75;;;;;;;-147.95;100.00;58458.38;5088048;28;20016;-81
2023/09/01 04:47:45;;;;;;;21.42;7.72;;;;;;;-147.95;100.00;58458.38;5084948;28;20088;-82
2023/09/01 04:50:10;;;;;;;20.48;7.82;;;;;;;-147.95;100.00;58458.38;5074150;28;20107;-82
2023/09/01 04:52:36;;;;;;;16.88;8.40;;;;;;;-147.95;100.00;58458.38;5088508;28;20039;-84
2023/09/01 04:55:03;;;;;;;29.95;9.07;;;;;;;-147.95;100.00;58458.38;5071345;28;20116;-82
2023/09/01 04:57:28;;;;;;;21.67;7.93;;;;;;;-147.95;100.00;58458.38;5049816;28;20399;-83
2023/09/01 04:59:54;;;;;;;27.58;8.27;;;;;;;-147.95;100.00;58458.38;5083854;28;20044;-83
2023/09/01 05:02:20;;;;;;;20.17;9.75;;;;;;;-147.95;100.00;58458.38;5077811;28;20036;-83
2023/09/01 05:04:46;;;;;;;19.55;8.95;;;;;;;-147.95;100.00;58458.38;5087183;28;20040;-83
2023/09/01 05:07:12;;;;;;;17.98;8.07;;;;;;;-147.95;100.00;58458.38;5080909;28;20036;-83
2023/09/01 05:09:37;;;;;;;17.20;8.05;;;;;;;-147.95;100.00;58458.38;5084330;28;20047;-82
2023/09/01 05:12:03;;;;;;;19.42;8.27;;;;;;;-147.95;100.00;58458.38;5083336;28;20032;-82
2023/09/01 05:14:29;;;;;;;16.70;7.57;;;;;;;-147.95;100.00;58458.38;5072303;28;20440;-82
2023/09/01 05:16:56;;;;;;;17.65;7.80;;;;;;;-147.95;100.00;58458.38;5086150;28;20111;-83
2023/09/01 05:19:22;;;;;;;21.85;8.38;;;;;;;-147.95;100.00;58458.38;5080017;28;20077;-83
2023/09/01 05:21:48;;;;;;;27.65;8.45;;;;;;;-147.95;100.00;58458.38;5062697;28;20028;-82
2023/09/01 05:24:14;;;;;;;22.83;7.60;;;;;;;-147.95;100.00;58458.38;5083593;28;20024;-83
2023/09/01 05:26:41;;;;;;;22.40;8.27;;;;;;;-147.95;100.00;58458.38;5080835;28;20048;-82
2023/09/01 05:29:06;;;;;;;18.88;8.15;;;;;;;-147.95;100.00;58458.38;5080620;28;20036;-83
2023/09/01 05:31:31;;;;;;;15.95;8.15;;;;;;;-147.95;100.00;58458.38;5079112;28;20040;-83
2023/09/01 05:33:57;;;;;;;24.80;9.38;;;;;;;-147.95;100.00;58458.38;5051434;28;20032;-83
2023/09/01 05:36:23;;;;;;;22.45;8.65;;;;;;;-147.95;100.00;58458.38;5084876;28;20046;-83
2023/09/01 05:38:48;;;;;;;18.55;10.30;;;;;;;-147.95;100.00;58458.38;5086865;28;21387;-82
2023/09/01 05:41:14;;;;;;;24.58;9.57;;;;;;;-147.95;100.00;58458.38;5066438;28;20028;-82
2023/09/01 05:43:39;;;;;;;22.90;10.13;;;;;;;-147.95;100.00;58458.38;5081272;28;20029;-83
2023/09/01 05:46:05;;;;;;;29.85;10.05;;;;;;;-147.95;100.00;58458.38;5052285;28;20136;-83
2023/09/01 05:48:30;;;;;;;19.95;9.27;;;;;;;-147.95;100.00;58458.38;5084414;28;20031;-83
2023/09/01 05:50:56;;;;;;;23.83;10.57;;;;;;;-147.95;100.00;58458.38;5085016;28;20024;-82
2023/09/01 05:53:22;;;;;;;21.98;10.50;;;;;;;-147.95;100.00;58458.38;5079163;28;20035;-83
2023/09/01 05:55:47;;;;;;;21.45;9.70;;;;;;;-147.95;100.00;58458.38;5085407;28;20066;-83
2023/09/01 05:58:14;;;;;;;19.98;9.52;;;;;;;-147.95;100.00;58458.38;5065804;28;20495;-82
2023/09/01 06:00:40;;;;;;;24.92;9.02;;;;;;;-147.95;100.00;58458.38;5088589;28;20116;-82
2023/09/01 06:03:05;;;;;;;29.02;10.55;;;;;;;-147.95;100.00;58458.38;5071804;28;20111;-82
2023/09/01 06:05:31;;;;;;;19.13;9.35;;;;;;;-147.95;100.00;58458.38;5086401;28;20060;-82
2023/09/01 06:07:58;;;;;;;24.63;8.88;;;;;;;-147.95;100.00;58458.38;5083927;28;20049;-83
2023/09/01 06:10:23;;;;;;;22.45;9.70;;;;;;;-147.95;100.00;58458.38;5085603;28;20115;-82
2023/09/01 06:12:49;;;;;;;23.20;10.00;;;;;;;-147.95;100.00;58458.38;5067781;28;20135;-82
2023/09/01 06:15:14;;;;;;;28.25;11.07;;;;;;;-147.95;100.00;58458.38;5087897;28;20033;-82
2023/09/01 06:17:40;;;;;;;27.73;10.80;;;;;;;-147.95;100.00;58458.38;5090047;28;20028;-83
2023/09/01 06:20:06;;;;;;;24.80;10.32;;;;;;;-147.95;100.00;58458.38;5082130;28;20058;-83
2023/09/01 06:22:32;;;;;;;33.65;11.32;;;;;;;-147.95;100.00;58458.38;5087710;28;20120;-83
2023/09/01 06:24:58;;;;;;;18.75;9.77;;;;;;;-147.95;100.00;58458.38;5086840;28;20020;-83
2023/09/01 06:27:23;;;;;;;19.33;9.50;;;;;;;-147.95;100.00;58458.38;5089240;28;20038;-83
2023/09/01 06:29:49;;;;;;;21.85;9.38;;;;;;;-147.95;100.00;58458.38;5087449;28;20032;-84
2023/09/01 06:32:14;;;;;;;28.38;9.43;;;;;;;-147.95;100.00;58458.38;5069907;28;20036;-84
2023/09/01 06:34:40;;;;;;;21.10;9.52;;;;;;;-147.95;100.00;58458.38;5101656;28;20024;-84
2023/09/01 06:37:06;;;;;;;20.08;9.50;;;;;;;-147.95;100.00;58458.38;5086997;28;20032;-85
2023/09/01 06:39:32;;;;;;;25.02;10.40;;;;;;;-147.95;100.00;58458.38;5087396;28;20042;-82
2023/09/01 06:41:57;;;;;;;26.23;9.70;;;;;;;-147.95;100.00;58458.38;5081662;28;20524;-82
2023/09/01 06:44:23;;;;;;;21.45;9.60;;;;;;;-147.95;100.00;58458.38;5065843;28;20038;-82
2023/09/01 06:46:48;;;;;;;22.23;9.43;;;;;;;-147.95;100.00;58458.38;5092261;28;20012;-84
2023/09/01 06:49:15;;;;;;;23.67;9.52;;;;;;;-147.95;100.00;58458.38;5087480;28;20097;-83
2023/09/01 06:51:40;;;;;;;25.67;10.38;;;;;;;-147.95;100.00;58458.38;5088697;28;20063;-84
2023/09/01 06:54:06;;;;;;;21.55;9.48;;;;;;;-147.95;100.00;58458.38;5071810;28;20451;-85
2023/09/01 06:56:31;;;;;;;29.75;11.25;;;;;;;-147.95;100.00;58458.38;5089697;28;20039;-83
2023/09/01 06:58:57;;;;;;;20.92;9.52;;;;;;;-147.95;100.00;58458.38;5073168;28;20112;-84
2023/09/01 07:01:22;;;;;;;23.98;10.63;;;;;;;-147.95;100.00;58458.38;5072818;28;20127;-79
2023/09/01 07:03:50;;;;;;;26.48;11.93;;;;;;;-147.95;100.00;58458.38;5077157;28;20049;-77
2023/09/01 07:06:16;;;;;;;21.77;11.60;;;;;;;-147.95;100.00;58458.38;5072120;28;20407;-77
2023/09/01 07:08:42;;;;;;;25.40;10.07;;;;;;;-147.95;100.00;58458.38;5073882;28;20044;-77
2023/09/01 07:11:10;;;;;;;24.38;10.82;;;;;;;-147.95;100.00;58458.38;5083951;28;20081;-77
2023/09/01 07:13:35;;;;;;;28.63;11.00;;;;;;;-147.95;100.00;58458.38;5066947;28;20032;-77
2023/09/01 07:16:01;;;;;;;19.50;10.27;;;;;;;-147.95;100.00;58458.38;5082448;28;20395;-77
2023/09/01 07:18:26;;;;;;;22.83;11.25;;;;;;;-147.95;100.00;58458.38;5064808;28;20482;-77
2023/09/01 07:20:58;;;;;;;22.05;10.98;;;;;;;-147.95;100.00;58458.38;5062800;28;20039;-77
2023/09/01 07:23:24;;;;;;;28.20;12.15;;;;;;;-147.95;100.00;58458.38;5082002;28;20487;-77
2023/09/01 07:25:52;;;;;;;29.73;13.70;;;;;;;-147.95;100.00;58458.38;5084419;28;20072;-77
2023/09/01 07:28:17;;;;;;;33.33;13.40;;;;;;;-147.95;100.00;58458.38;5079871;28;20032;-77
2023/09/01 07:30:43;;;;;;;33.58;13.43;;;;;;;-147.95;100.00;58458.38;5050007;28;20043;-77
2023/09/01 07:33:08;;;;;;;26.60;12.60;;;;;;;-147.95;100.00;58458.38;5072301;28;20051;-77
2023/09/01 07:35:35;;;;;;;29.90;12.57;;;;;;;-147.95;100.00;58458.38;5067767;28;20106;-77
2023/09/01 07:38:04;;;;;;;24.88;11.95;;;;;;;-147.95;100.00;58458.38;5084754;28;20241;-77
2023/09/01 07:40:32;;;;;;;24.13;12.70;;;;;;;-147.95;100.00;58458.38;5081889;28;20028;-77
2023/09/01 07:42:59;;;;;;;29.67;13.15;;;;;;;-147.95;100.00;58458.38;5082280;28;20024;-77
2023/09/01 07:45:25;;;;;;;28.95;13.70;;;;;;;-147.95;100.00;58458.38;5087361;28;20513;-76
2023/09/01 07:47:51;;;;;;;31.38;14.20;;;;;;;-147.95;100.00;58458.38;5087668;28;20062;-76
2023/09/01 07:50:19;;;;;;;35.30;14.70;;;;;;;-147.95;100.00;58458.38;5078403;28;20039;-77
2023/09/01 07:52:44;;;;;;;30.13;13.35;;;;;;;-147.95;100.00;58458.38;5087299;28;20044;-77
2023/09/01 07:55:11;;;;;;;35.22;14.30;;;;;;;-147.95;100.00;58458.38;5087313;28;20387;-77
2023/09/01 07:57:37;;;;;;;27.30;14.20;;;;;;;-147.95;100.00;58458.38;5088752;28;20081;-77
2023/09/01 08:00:07;;;;;;;36.42;16.45;;;;;;;-147.95;100.00;58458.38;5069301;28;20501;-77
2023/09/01 08:02:34;;;;;;;38.88;14.27;;;;;;;-147.95;100.00;58458.38;5061317;28;20567;-76
2023/09/01 08:05:00;;;;;;;37.70;16.17;;;;;;;-147.95;100.00;58458.38;5069673;28;20064;-76
2023/09/01 08:07:26;;;;;;;35.25;14.27;;;;;;;-147.95;100.00;58458.38;5087027;28;20122;-77
2023/09/01 08:09:51;;;;;;;30.88;14.32;;;;;;;-147.95;100.00;58458.38;5090762;28;20055;-77
2023/09/01 08:12:17;;;;;;;33.08;13.85;;;;;;;-147.95;100.00;58458.38;5070250;28;20494;-77
2023/09/01 08:14:42;;;;;;;28.10;13.85;;;;;;;-147.95;100.00;58458.38;5087178;28;20036;-77
2023/09/01 08:17:07;;;;;;;30.77;13.80;;;;;;;-147.95;100.00;58458.38;5069684;28;20051;-77
2023/09/01 08:19:36;;;;;;;27.55;13.15;;;;;;;-147.95;100.00;58458.38;5084704;28;20391;-76
2023/09/01 08:22:02;;;;;;;25.52;12.75;;;;;;;-147.95;100.00;58458.38;5082491;28;20078;-77
2023/09/01 08:24:27;;;;;;;32.67;14.13;;;;;;;-147.95;100.00;58458.38;5087950;28;20040;-77
2023/09/01 08:26:52;;;;;;;30.15;13.98;;;;;;;-147.95;100.00;58458.38;5082831;28;20041;-77
2023/09/01 08:29:18;;;;;;;29.35;13.80;;;;;;;-147.95;100.00;58458.38;5070776;28;20035;-77
2023/09/01 08:31:43;;;;;;;35.00;13.23;;;;;;;-147.95;100.00;58458.38;5086024;28;20028;-77
2023/09/01 08:34:10;;;;;;;30.30;15.57;;;;;;;-147.95;100.00;58458.38;5088626;28;20028;-77
2023/09/01 08:36:37;;;;;;;31.45;15.48;;;;;;;-147.95;100.00;58458.38;5086700;28;20052;-77
2023/09/01 08:39:03;;;;;;;34.10;15.15;;;;;;;-147.95;100.00;58458.38;5090076;28;20189;-77
2023/09/01 08:41:29;;;;;;;34.92;16.13;;;;;;;-147.95;100.00;58458.38;5079927;28;20488;-77
2023/09/01 08:44:01;;;;;;;42.78;17.02;;;;;;;-147.95;100.00;58458.38;5083564;28;20036;-76
2023/09/01 08:46:27;;;;;;;37.08;17.50;;;;;;;-147.95;100.00;58458.38;5079890;28;20119;-77
2023/09/01 08:48:53;;;;;;;34.47;18.30;;;;;;;-147.95;100.00;58458.38;5078803;28;20024;-76
2023/09/01 08:51:20;;;;;;;41.22;20.40;;;;;;;-147.95;100.00;58458.38;5085882;28;20046;-76
2023/09/01 08:53:46;;;;;;;38.40;18.55;;;;;;;-147.95;100.00;58458.38;5084550;28;20118;-77
2023/09/01 08:56:12;;;;;;;41.47;18.05;;;;;;;-147.95;100.00;58458.38;5085659;28;20173;-77
2023/09/01 08:58:40;;;;;;;37.28;17.42;;;;;;;-147.95;100.00;58458.38;5086368;28;20518;-77
2023/09/01 09:01:05;;;;;;;34.70;16.08;;;;;;;-147.95;100.00;58458.38;5078093;28;20054;-76
2023/09/01 09:03:32;;;;;;;38.88;16.42;;;;;;;-147.95;100.00;58458.38;5051506;28;20455;-77
2023/09/01 09:05:58;;;;;;;38.40;16.15;;;;;;;-147.95;100.00;58458.38;5085916;28;20040;-77
2023/09/01 09:08:24;;;;;;;32.45;15.98;;;;;;;-147.95;100.00;58458.38;5065289;28;20047;-77
2023/09/01 09:10:50;;;;;;;65.95;18.05;;;;;;;-147.95;100.00;58458.38;5087086;28;20032;-77
2023/09/01 09:13:27;;;;;;;39.83;16.40;;;;;;;-147.95;100.00;58458.38;5085060;28;20023;-77
2023/09/01 09:16:12;;;;;;;42.50;16.73;;;;;;;-147.95;100.00;58458.38;5080649;28;20402;-77
2023/09/01 09:18:40;;;;;;;36.33;15.85;;;;;;;-147.95;100.00;58458.38;5084641;28;20100;-77
2023/09/01 09:21:27;;;;;;;41.58;16.73;;;;;;;-147.95;100.00;58458.38;5089437;28;20027;-77
2023/09/01 09:24:03;;;;;;;37.35;16.05;;;;;;;-147.95;100.00;58458.38;5089880;28;20024;-77
2023/09/01 09:26:30;;;;;;;32.25;15.70;;;;;;;-147.95;100.00;58458.38;5077676;28;20028;-77
2023/09/01 09:29:06;;;;;;;43.15;16.70;;;;;;;-147.95;100.00;58458.38;5086582;28;20481;-77
2023/09/01 09:31:44;;;;;;;43.30;17.55;;;;;;;-147.95;100.00;58458.38;5081690;28;20020;-78
2023/09/01 09:34:17;;;;;;;44.88;17.73;;;;;;;-147.95;100.00;58458.38;5083322;28;20028;-78
2023/09/01 09:36:48;;;;;;;47.70;18.08;;;;;;;-147.95;100.00;58458.38;5079392;28;20028;-78
2023/09/01 09:39:41;;;;;;;43.72;16.33;;;;;;;-147.95;100.00;58458.38;5088232;28;20043;-78
2023/09/01 09:42:07;;;;;;;46.47;18.50;;;;;;;-147.95;100.00;58458.38;5084424;28;20048;-78
2023/09/01 09:44:33;;;;;;;49.00;17.60;;;;;;;-147.95;100.00;58458.38;5087873;28;20051;-78
2023/09/01 09:47:02;;;;;;;59.88;17.40;;;;;;;-147.95;100.00;58458.38;5092088;28;20115;-77
2023/09/01 09:49:32;;;;;;;42.35;17.55;;;;;;;-147.95;100.00;58458.38;5089219;28;20104;-78
2023/09/01 09:51:59;;;;;;;39.42;16.02;;;;;;;-147.95;100.00;58458.38;5092589;28;20027;-78
2023/09/01 09:54:28;;;;;;;47.67;17.63;;;;;;;-147.95;100.00;58458.38;5090422;28;20035;-78
2023/09/01 09:56:56;;;;;;;43.75;19.80;;;;;;;-147.95;100.00;58458.38;5085654;28;20094;-78
2023/09/01 09:59:37;;;;;;;47.65;19.52;;;;;;;-147.95;100.00;58458.38;5093505;28;20024;-78
2023/09/01 10:02:22;;;;;;;51.38;21.35;;;;;;;-147.95;100.00;58458.38;5091985;28;20027;-78
2023/09/01 10:04:49;;;;;;;52.10;20.45;;;;;;;-147.95;100.00;58458.38;5084560;28;20039;-78
2023/09/01 10:07:16;;;;;;;50.22;20.23;;;;;;;-147.95;100.00;58458.38;5092577;28;20036;-78
2023/09/01 10:09:43;;;;;;;50.05;20.50;;;;;;;-147.95;100.00;58458.38;5092994;28;20028;-78
2023/09/01 10:12:09;;;;;;;44.35;19.13;;;;;;;-147.95;100.00;58458.38;5075545;28;20032;-79
2023/09/01 10:14:39;;;;;;;51.45;19.83;;;;;;;-147.95;100.00;58458.38;5087385;28;20040;-78
2023/09/01 10:17:05;;;;;;;53.08;19.67;;;;;;;-147.95;100.00;58458.38;5087208;28;20371;-79
2023/09/01 10:19:30;;;;;;;54.05;20.23;;;;;;;-147.95;100.00;58458.38;5067541;28;20085;-78
2023/09/01 10:21:56;;;;;;;49.03;19.85;;;;;;;-147.95;100.00;58458.38;5088145;28;20092;-78
2023/09/01 10:24:21;;;;;;;55.33;22.25;;;;;;;-147.95;100.00;58458.38;5084196;28;20394;-78
2023/09/01 10:27:06;;;;;;;62.10;21.90;;;;;;;-147.95;100.00;58458.38;5089434;28;20422;-79
2023/09/01 10:29:34;;;;;;;56.30;22.30;;;;;;;-147.95;100.00;58458.38;5082512;28;20428;-79
2023/09/01 10:32:17;;;;;;;56.03;21.38;;;;;;;-147.95;100.00;58458.38;5090022;28;20031;-78
2023/09/01 10:34:51;;;;;;;48.92;21.60;;;;;;;-147.95;100.00;58458.38;5072702;28;20121;-79
2023/09/01 10:37:27;;;;;;;45.90;19.75;;;;;;;-147.95;100.00;58458.38;5083374;28;20044;-79
2023/09/01 10:39:57;;;;;;;39.47;16.55;;;;;;;-147.95;100.00;58458.38;5088927;28;20056;-79
2023/09/01 10:42:43;;;;;;;38.85;15.70;;;;;;;-147.95;100.00;58458.38;5085255;28;20016;-79
2023/09/01 10:45:11;;;;;;;34.85;14.73;;;;;;;-147.95;100.00;58458.38;5090178;28;20391;-79
2023/09/01 10:47:45;;;;;;;34.30;14.70;;;;;;;-147.95;100.00;58458.38;5089862;28;20016;-79
2023/09/01 10:50:12;;;;;;;34.08;14.82;;;;;;;-147.95;100.00;58458.38;5088830;28;20024;-79
2023/09/01 10:52:38;;;;;;;37.50;14.38;;;;;;;-147.95;100.00;58458.38;5072847;28;20025;-78
2023/09/01 10:55:06;;;;;;;41.28;15.43;;;;;;;-147.95;100.00;58458.38;5092474;28;20453;-79
2023/09/01 10:57:41;;;;;;;36.97;14.25;;;;;;;-147.95;100.00;58458.38;5072725;28;20069;-78
2023/09/01 11:00:26;;;;;;;44.08;14.93;;;;;;;-147.95;100.00;58458.38;5092357;28;20028;-79